Time;durP1;ratioP1;P1;durP2;ratioP2;P2;SDS_P1;SDS_P2;PMS_P1;PMS_P2;Temp;Humidity;BMP_temperature;BMP_pressure;BME280_temperature;BME280_humidity;BME280_pressure;Samples;Min_cycle;Max_cycle;Signal;HPM_P1;HPM_P2
2021/07/15 00:11:29;;;;;;;0.40;0.40;;;;;;;23.27;79.07;97501.72;5042229;28;20248;-69
2021/07/15 00:13:58;;;;;;;0.30;0.30;;;;;;;23.30;83.65;97492.97;5042404;28;20237;-69
2021/07/15 00:16:25;;;;;;;0.37;0.33;;;;;;;23.81;78.70;97496.56;5048913;28;20716;-69
2021/07/15 00:18:53;;;;;;;0.40;0.40;;;;;;;23.78;80.91;97495.22;5040069;28;20209;-69
2021/07/15 00:21:22;;;;;;;0.30;0.30;;;;;;;23.51;80.43;97492.38;5041570;28;20206;-70
2021/07/15 00:23:50;;;;;;;0.30;0.30;;;;;;;23.01;83.50;97489.53;5036605;28;20286;-70
2021/07/15 00:26:19;;;;;;;0.57;0.30;;;;;;;22.87;85.41;97488.63;5031827;28;20227;-70
2021/07/15 00:28:46;;;;;;;0.53;0.27;;;;;;;23.09;85.35;97486.16;5032019;28;20202;-71
2021/07/15 00:31:15;;;;;;;0.60;0.30;;;;;;;23.15;84.88;97487.72;5034052;28;20206;-71
2021/07/15 00:33:42;;;;;;;0.30;0.30;;;;;;;22.85;86.61;97488.13;5039611;28;20230;-70
2021/07/15 00:36:10;;;;;;;0.20;0.20;;;;;;;23.11;84.97;97481.22;5033755;28;20226;-70
2021/07/15 00:38:37;;;;;;;1.03;0.30;;;;;;;23.30;83.91;97479.38;5049069;28;20205;-70
2021/07/15 00:41:05;;;;;;;0.20;0.20;;;;;;;23.46;84.38;97475.31;5043714;28;20573;-70
2021/07/15 00:43:34;;;;;;;0.30;0.30;;;;;;;23.19;83.31;97483.31;5032285;28;20233;-71
2021/07/15 00:46:01;;;;;;;0.67;0.30;;;;;;;23.15;84.32;97485.00;5034354;28;20719;-70
2021/07/15 00:48:30;;;;;;;0.20;0.20;;;;;;;22.90;86.80;97475.25;5041036;28;20209;-70
2021/07/15 00:50:57;;;;;;;0.30;0.30;;;;;;;23.13;84.50;97466.22;5036013;28;20677;-70
2021/07/15 00:53:24;;;;;;;0.30;0.30;;;;;;;22.64;85.04;97473.16;5041843;28;20218;-70
2021/07/15 00:55:52;;;;;;;0.23;0.20;;;;;;;23.09;85.13;97475.25;5034930;28;20223;-70
2021/07/15 00:58:19;;;;;;;1.80;0.40;;;;;;;22.68;89.16;97474.97;5036685;28;20208;-70
2021/07/15 01:00:48;;;;;;;0.20;0.20;;;;;;;22.36;89.88;97474.78;5051591;28;20548;-70
2021/07/15 01:03:20;;;;;;;0.80;0.30;;;;;;;22.53;88.45;97468.91;5040240;28;20206;-70
2021/07/15 01:05:50;;;;;;;0.67;0.30;;;;;;;23.01;84.27;97476.72;5044896;28;20186;-70
2021/07/15 01:08:18;;;;;;;0.20;0.20;;;;;;;22.86;85.56;97470.69;5039987;28;20206;-70
2021/07/15 01:10:47;;;;;;;0.63;0.30;;;;;;;22.71;87.00;97468.16;5044447;28;20206;-72
2021/07/15 01:13:31;;;;;;;0.30;0.30;;;;;;;22.53;88.15;97468.91;5038507;28;20214;-70
2021/07/15 01:16:07;;;;;;;0.20;0.20;;;;;;;22.16;90.54;97469.56;5041820;28;20209;-70
2021/07/15 01:18:47;;;;;;;0.20;0.20;;;;;;;22.94;86.23;97470.00;5036396;28;20194;-70
2021/07/15 01:21:47;;;;;;;0.53;0.20;;;;;;;22.19;90.33;97468.19;5038536;28;20206;-70
2021/07/15 01:24:48;;;;;;;0.30;0.30;;;;;;;22.96;86.26;97468.63;5032636;28;20206;-70
2021/07/15 01:27:33;;;;;;;0.53;0.33;;;;;;;22.43;87.87;97469.81;5034501;28;20305;-70
2021/07/15 01:30:07;;;;;;;1.60;0.30;;;;;;;22.21;90.74;97468.69;5034938;28;20215;-70
2021/07/15 01:32:39;;;;;;;1.50;0.30;;;;;;;23.02;84.62;97453.88;5040352;28;20195;-70
2021/07/15 01:35:09;;;;;;;3.70;1.93;;;;;;;22.63;87.13;97447.84;5042655;28;20226;-70
2021/07/15 01:37:37;;;;;;;0.20;0.20;;;;;;;22.68;86.56;97446.97;5034823;28;20218;-70
2021/07/15 01:40:06;;;;;;;1.47;0.30;;;;;;;23.06;84.26;97440.47;5042820;28;20211;-70
2021/07/15 01:42:35;;;;;;;1.50;0.40;;;;;;;22.90;84.57;97455.41;5034488;28;20214;-70
2021/07/15 01:45:05;;;;;;;1.07;0.23;;;;;;;22.36;86.67;97453.03;5045062;28;20210;-71
2021/07/15 01:47:32;;;;;;;0.20;0.20;;;;;;;22.32;89.44;97445.72;5052551;28;20665;-70
2021/07/15 01:50:01;;;;;;;0.20;0.20;;;;;;;21.95;91.88;97448.31;5039920;28;20206;-70
2021/07/15 01:52:29;;;;;;;2.13;0.30;;;;;;;22.35;89.44;97447.88;5047819;28;20658;-71
2021/07/15 01:54:57;;;;;;;0.20;0.20;;;;;;;22.44;88.05;97446.97;5034265;28;20223;-71
2021/07/15 01:57:24;;;;;;;0.10;0.10;;;;;;;21.96;92.44;97463.50;5033843;28;20244;-67
2021/07/15 01:59:51;;;;;;;0.73;0.30;;;;;;;21.94;91.89;97463.78;5039981;28;20198;-70
2021/07/15 02:02:22;;;;;;;0.83;0.20;;;;;;;22.66;86.96;97465.50;5040674;28;20213;-70
2021/07/15 02:04:50;;;;;;;2.00;0.20;;;;;;;22.64;85.84;97459.53;5047095;28;20203;-70
2021/07/15 02:07:18;;;;;;;0.30;0.30;;;;;;;22.76;86.14;97460.72;5048324;28;20233;-70
2021/07/15 02:09:45;;;;;;;1.10;0.27;;;;;;;22.42;87.61;97451.06;5042545;28;20199;-70
2021/07/15 02:12:13;;;;;;;0.73;0.20;;;;;;;22.34;86.47;97447.06;5035604;28;20211;-73
2021/07/15 02:14:40;;;;;;;0.10;0.10;;;;;;;22.19;87.91;97441.78;5045877;28;20697;-70
2021/07/15 02:17:08;;;;;;;0.30;0.30;;;;;;;22.60;87.23;97440.25;5037222;28;20233;-70
2021/07/15 02:19:38;;;;;;;1.17;0.20;;;;;;;22.48;86.55;97439.88;5041982;28;20201;-70
2021/07/15 02:22:05;;;;;;;0.37;0.30;;;;;;;22.71;84.97;97441.75;5038459;28;20220;-71
2021/07/15 02:24:34;;;;;;;0.20;0.20;;;;;;;22.45;87.22;97448.59;5034005;28;20197;-70
2021/07/15 02:27:03;;;;;;;0.20;0.20;;;;;;;22.68;85.84;97455.13;5042524;28;20226;-70
2021/07/15 02:29:32;;;;;;;0.40;0.40;;;;;;;22.49;87.72;97455.09;5051157;28;20217;-69
2021/07/15 02:32:04;;;;;;;0.20;0.20;;;;;;;22.48;87.06;97456.19;5039101;28;20671;-70
2021/07/15 02:34:38;;;;;;;1.70;0.50;;;;;;;22.36;86.89;97457.66;5033623;28;20233;-69
2021/07/15 02:37:06;;;;;;;0.20;0.20;;;;;;;22.03;86.95;97459.34;5036127;28;20221;-70
2021/07/15 02:39:33;;;;;;;0.33;0.20;;;;;;;22.51;87.61;97460.25;5051236;28;20217;-69
2021/07/15 02:42:00;;;;;;;0.30;0.30;;;;;;;22.56;84.29;97468.34;5040843;28;20203;-70
2021/07/15 02:44:28;;;;;;;0.33;0.20;;;;;;;22.54;84.61;97457.75;5041986;28;20198;-70
2021/07/15 02:46:56;;;;;;;0.10;0.10;;;;;;;22.54;85.23;97465.09;5033602;28;20221;-70
2021/07/15 02:49:23;;;;;;;0.20;0.20;;;;;;;22.97;81.82;97459.38;5042345;28;20205;-69
2021/07/15 02:51:52;;;;;;;2.23;0.30;;;;;;;23.05;82.11;97458.72;5047160;28;20205;-70
2021/07/15 02:54:20;;;;;;;0.10;0.10;;;;;;;22.83;82.40;97468.53;5048585;28;20206;-69
2021/07/15 02:57:00;;;;;;;0.53;0.40;;;;;;;22.24;85.37;97465.41;5040067;28;20284;-69
2021/07/15 02:59:33;;;;;;;1.93;0.40;;;;;;;22.82;83.95;97470.47;5033656;28;20202;-69
2021/07/15 03:02:07;;;;;;;0.20;0.20;;;;;;;22.96;81.38;97455.00;5033507;28;20207;-70
2021/07/15 03:04:39;;;;;;;0.30;0.20;;;;;;;22.74;82.37;97464.84;5052610;28;20194;-70
2021/07/15 03:07:10;;;;;;;0.33;0.33;;;;;;;23.21;80.15;97464.78;5053012;28;20222;-69
2021/07/15 03:09:38;;;;;;;0.20;0.20;;;;;;;23.21;81.19;97473.75;5033001;28;20717;-69
2021/07/15 03:12:08;;;;;;;0.13;0.13;;;;;;;23.00;80.92;97469.66;5040845;28;20206;-69
2021/07/15 03:14:38;;;;;;;1.47;0.20;;;;;;;23.36;79.31;97465.34;5038263;28;20253;-71
2021/07/15 03:17:07;;;;;;;0.87;0.50;;;;;;;23.19;79.94;97456.91;5041435;28;20224;-69
2021/07/15 03:19:36;;;;;;;0.27;0.27;;;;;;;22.60;83.94;97456.56;5033038;28;20214;-69
2021/07/15 03:22:07;;;;;;;0.20;0.20;;;;;;;23.26;78.98;97467.44;5035196;28;20586;-69
2021/07/15 03:24:46;;;;;;;0.30;0.27;;;;;;;22.62;82.01;97467.16;5042593;28;20583;-71
2021/07/15 03:27:14;;;;;;;0.57;0.30;;;;;;;22.89;79.43;97478.25;5035924;28;20230;-69
2021/07/15 03:29:44;;;;;;;0.20;0.20;;;;;;;22.21;83.67;97485.00;5040237;28;20205;-69
2021/07/15 03:32:14;;;;;;;0.73;0.20;;;;;;;22.75;81.51;97480.09;5037442;28;20206;-69
2021/07/15 03:34:41;;;;;;;0.20;0.20;;;;;;;22.69;83.55;97478.50;5040132;28;20230;-69
2021/07/15 03:37:11;;;;;;;1.20;0.27;;;;;;;22.26;86.41;97474.91;5032743;28;20219;-69
2021/07/15 03:39:39;;;;;;;0.57;0.20;;;;;;;21.84;89.00;97477.47;5040508;28;20575;-69
2021/07/15 03:42:07;;;;;;;0.13;0.13;;;;;;;21.36;93.00;97472.13;5048553;28;20237;-69
2021/07/15 03:44:34;;;;;;;0.20;0.20;;;;;;;21.73;92.86;97475.94;5041080;28;20210;-69
2021/07/15 03:47:01;;;;;;;1.30;0.30;;;;;;;22.49;85.94;97489.66;5032691;28;20231;-70
2021/07/15 03:49:29;;;;;;;2.53;0.40;;;;;;;23.07;83.18;97475.56;5032605;28;20205;-69
2021/07/15 03:51:58;;;;;;;2.10;0.20;;;;;;;22.88;84.54;97473.91;5032319;28;20202;-69
2021/07/15 03:54:27;;;;;;;0.20;0.20;;;;;;;22.53;85.54;97482.50;5050328;28;20843;-69
2021/07/15 03:56:55;;;;;;;1.00;0.30;;;;;;;22.96;84.87;97493.13;5037899;28;20234;-69
2021/07/15 03:59:22;;;;;;;0.97;0.37;;;;;;;23.76;77.51;97491.19;5031970;28;20206;-69
2021/07/15 04:01:59;;;;;;;0.80;0.30;;;;;;;23.19;82.01;97494.19;5034449;28;20654;-69
2021/07/15 04:04:29;;;;;;;1.67;0.53;;;;;;;22.74;82.48;97490.16;5033567;28;20225;-70
2021/07/15 04:06:58;;;;;;;2.43;0.20;;;;;;;21.74;90.54;97496.56;5032097;28;20230;-69
2021/07/15 04:09:28;;;;;;;2.53;0.30;;;;;;;22.50;86.45;97497.50;5050307;28;20620;-70
2021/07/15 04:11:57;;;;;;;1.53;0.20;;;;;;;22.55;86.43;97493.91;5046281;28;20217;-69
2021/07/15 04:14:35;;;;;;;1.53;0.20;;;;;;;23.02;83.26;97491.97;5039837;28;20225;-69
2021/07/15 04:17:06;;;;;;;0.30;0.20;;;;;;;23.26;79.96;97487.28;5043187;28;20828;-69
2021/07/15 04:19:35;;;;;;;1.50;0.40;;;;;;;23.01;83.12;97492.25;5035003;28;20198;-69
2021/07/15 04:22:03;;;;;;;0.50;0.40;;;;;;;23.63;78.63;97494.66;5036663;28;20569;-70
2021/07/15 04:24:33;;;;;;;2.77;0.40;;;;;;;23.52;78.02;97485.00;5032460;28;20211;-69
2021/07/15 04:27:00;;;;;;;0.20;0.20;;;;;;;24.07;73.90;97495.03;5043697;28;20224;-70
2021/07/15 04:29:28;;;;;;;0.50;0.30;;;;;;;23.80;77.56;97484.00;5033190;28;20202;-69
2021/07/15 04:32:05;;;;;;;1.43;0.30;;;;;;;22.74;82.47;97494.75;5031746;28;20211;-69
2021/07/15 04:34:34;;;;;;;0.33;0.30;;;;;;;22.42;86.10;97500.81;5031594;28;20203;-69
2021/07/15 04:37:02;;;;;;;1.30;0.30;;;;;;;22.17;87.73;97502.97;5041727;28;20227;-69
2021/07/15 04:39:30;;;;;;;0.20;0.20;;;;;;;22.84;83.80;97510.97;5042995;28;20232;-69
2021/07/15 04:42:02;;;;;;;0.30;0.20;;;;;;;23.57;77.64;97509.47;5037119;28;20237;-69
2021/07/15 04:44:31;;;;;;;0.20;0.20;;;;;;;24.11;74.67;97498.78;5044455;28;20213;-69
2021/07/15 04:47:00;;;;;;;1.80;0.30;;;;;;;24.21;73.18;97498.59;5051628;28;20223;-69
2021/07/15 04:49:27;;;;;;;3.03;0.50;;;;;;;24.10;74.53;97480.78;5041078;28;20219;-69
2021/07/15 04:51:56;;;;;;;0.20;0.20;;;;;;;23.84;77.31;97474.94;5031607;28;20662;-71
2021/07/15 04:54:24;;;;;;;1.83;0.40;;;;;;;24.08;73.24;97481.13;5031395;28;20286;-69
2021/07/15 04:56:51;;;;;;;0.50;0.30;;;;;;;23.88;74.63;97481.44;5044757;28;20228;-69
2021/07/15 04:59:20;;;;;;;0.77;0.30;;;;;;;24.38;71.59;97472.34;5050326;28;20203;-70
2021/07/15 05:01:48;;;;;;;1.50;0.40;;;;;;;23.86;73.15;97461.81;5039096;28;20214;-69
2021/07/15 05:04:15;;;;;;;0.63;0.30;;;;;;;24.10;71.83;97478.88;5046993;28;20206;-70
2021/07/15 05:06:42;;;;;;;1.17;0.30;;;;;;;23.60;76.31;97468.81;5050651;28;20250;-69
2021/07/15 05:09:10;;;;;;;0.90;0.30;;;;;;;23.45;79.01;97473.66;5040270;28;20213;-69
2021/07/15 05:11:37;;;;;;;1.60;0.30;;;;;;;23.24;79.52;97475.06;5031711;28;20196;-70
2021/07/15 05:14:05;;;;;;;1.33;0.40;;;;;;;23.63;76.35;97481.03;5038949;28;20211;-69
2021/07/15 05:16:34;;;;;;;1.73;0.30;;;;;;;23.38;78.75;97474.06;5039873;28;20327;-69
2021/07/15 05:19:01;;;;;;;2.00;0.30;;;;;;;24.29;72.41;97473.34;5036370;28;20235;-69
2021/07/15 05:21:28;;;;;;;0.37;0.30;;;;;;;24.31;71.27;97482.03;5040612;28;20211;-69
2021/07/15 05:23:56;;;;;;;5.13;0.73;;;;;;;24.36;72.45;97492.84;5032765;28;20290;-69
2021/07/15 05:26:23;;;;;;;1.43;0.40;;;;;;;24.62;70.96;97496.78;5031127;28;20220;-69
2021/07/15 05:28:50;;;;;;;1.10;0.40;;;;;;;24.59;70.51;97492.72;5040049;28;20200;-69
2021/07/15 05:31:18;;;;;;;0.47;0.30;;;;;;;24.48;71.90;97487.75;5033941;28;20208;-70
2021/07/15 05:33:47;;;;;;;1.43;0.23;;;;;;;24.15;72.24;97486.97;5040545;28;20261;-69
2021/07/15 05:36:14;;;;;;;0.20;0.20;;;;;;;24.55;70.82;97499.88;5042063;28;20338;-70
2021/07/15 05:38:42;;;;;;;2.50;0.30;;;;;;;24.02;73.64;97495.13;5031456;28;20723;-69
2021/07/15 05:41:10;;;;;;;1.23;0.40;;;;;;;24.32;71.73;97492.66;5039463;28;20228;-69
2021/07/15 05:43:38;;;;;;;1.33;0.80;;;;;;;24.29;72.41;97484.28;5042762;28;20290;-69
2021/07/15 05:46:05;;;;;;;2.10;0.37;;;;;;;23.94;73.88;97485.72;5038462;28;20224;-69
2021/07/15 05:48:32;;;;;;;0.20;0.20;;;;;;;24.67;70.86;97493.94;5045628;28;20293;-69
2021/07/15 05:51:01;;;;;;;2.47;0.43;;;;;;;24.82;69.39;97507.28;5044891;28;20215;-69
2021/07/15 05:53:28;;;;;;;1.47;0.70;;;;;;;24.88;69.10;97504.13;5044051;28;20210;-70
2021/07/15 05:55:55;;;;;;;3.80;0.73;;;;;;;23.41;76.94;97494.44;5052228;28;20700;-69
2021/07/15 05:58:23;;;;;;;2.10;0.40;;;;;;;24.91;70.54;97509.00;5052758;28;20212;-69
2021/07/15 06:00:50;;;;;;;0.40;0.40;;;;;;;24.55;70.90;97510.78;5034376;28;20807;-69
2021/07/15 06:03:17;;;;;;;0.30;0.30;;;;;;;24.98;69.44;97514.84;5043001;28;20251;-69
2021/07/15 06:05:45;;;;;;;5.03;0.40;;;;;;;25.71;66.07;97522.81;5038015;28;20209;-70
2021/07/15 06:08:13;;;;;;;1.40;0.40;;;;;;;25.42;66.51;97517.75;5042585;28;20231;-69
2021/07/15 06:10:41;;;;;;;2.37;0.60;;;;;;;25.20;68.21;97504.00;5035105;28;20205;-71
2021/07/15 06:13:08;;;;;;;1.00;0.40;;;;;;;24.88;69.69;97517.00;5043327;28;20213;-69
2021/07/15 06:15:35;;;;;;;2.80;0.47;;;;;;;24.00;74.77;97516.41;5042292;28;20503;-70
2021/07/15 06:18:02;;;;;;;0.40;0.40;;;;;;;24.87;70.83;97532.56;5042666;28;20227;-69
2021/07/15 06:20:30;;;;;;;0.40;0.40;;;;;;;25.07;68.19;97548.53;5034913;28;20229;-70
2021/07/15 06:22:57;;;;;;;2.80;0.40;;;;;;;25.67;64.77;97547.25;5042628;28;20202;-70
2021/07/15 06:25:26;;;;;;;0.30;0.30;;;;;;;25.34;65.37;97555.91;5033853;28;20397;-69
2021/07/15 06:27:54;;;;;;;0.87;0.30;;;;;;;25.28;66.14;97543.50;5034021;28;20280;-70
2021/07/15 06:30:21;;;;;;;1.53;0.37;;;;;;;25.32;68.34;97531.63;5034089;28;20218;-70
2021/07/15 06:32:49;;;;;;;0.30;0.30;;;;;;;24.56;70.73;97522.50;5034223;28;20210;-69
2021/07/15 06:35:20;;;;;;;0.67;0.40;;;;;;;25.81;64.87;97541.72;5036859;28;20218;-69
2021/07/15 06:37:51;;;;;;;1.30;0.30;;;;;;;25.25;66.57;97531.25;5045505;28;20218;-69
2021/07/15 06:40:19;;;;;;;1.27;0.30;;;;;;;26.50;60.81;97541.91;5053630;28;20202;-69
2021/07/15 06:42:49;;;;;;;0.97;0.40;;;;;;;25.62;65.39;97521.94;5054056;28;20336;-69
2021/07/15 06:45:17;;;;;;;1.87;0.40;;;;;;;26.87;60.69;97546.13;5053629;28;20225;-69
2021/07/15 06:47:44;;;;;;;2.13;0.37;;;;;;;26.44;60.15;97556.84;5053658;28;20225;-68
2021/07/15 06:50:13;;;;;;;1.57;0.40;;;;;;;26.75;59.02;97554.16;5049666;28;20217;-71
2021/07/15 06:52:40;;;;;;;1.40;0.30;;;;;;;26.48;61.47;97549.63;5049398;28;20719;-69
2021/07/15 06:55:09;;;;;;;2.03;0.30;;;;;;;26.19;62.00;97546.53;5045095;28;20209;-69
2021/07/15 06:57:36;;;;;;;0.33;0.30;;;;;;;26.53;60.77;97549.50;5033368;28;20230;-69
2021/07/15 07:00:08;;;;;;;0.83;0.40;;;;;;;25.70;62.08;97545.81;5041654;28;20203;-68
2021/07/15 07:02:39;;;;;;;0.63;0.40;;;;;;;24.97;67.13;97534.25;5041006;28;20203;-68
2021/07/15 07:05:07;;;;;;;0.53;0.30;;;;;;;25.99;62.82;97548.97;5041586;28;20252;-71
2021/07/15 07:07:34;;;;;;;0.97;0.40;;;;;;;25.92;63.44;97540.38;5044024;28;20304;-68
2021/07/15 07:10:02;;;;;;;1.33;0.40;;;;;;;26.24;62.99;97540.94;5053406;28;20206;-68
2021/07/15 07:12:29;;;;;;;3.07;0.50;;;;;;;25.62;66.01;97532.88;5039406;28;20217;-70
2021/07/15 07:14:56;;;;;;;1.97;0.40;;;;;;;26.16;63.89;97533.50;5044565;28;20213;-68
2021/07/15 07:17:25;;;;;;;1.73;0.47;;;;;;;26.32;65.77;97523.78;5035018;28;20230;-68
2021/07/15 07:19:52;;;;;;;0.53;0.47;;;;;;;26.81;62.01;97528.25;5052986;28;20198;-68
2021/07/15 07:22:19;;;;;;;2.23;0.60;;;;;;;26.79;60.40;97534.03;5035477;28;20213;-68
2021/07/15 07:24:47;;;;;;;3.00;0.40;;;;;;;26.89;59.36;97532.91;5044172;28;20202;-68
2021/07/15 07:27:14;;;;;;;1.80;0.50;;;;;;;25.40;65.67;97530.91;5039804;28;20317;-68
2021/07/15 07:29:42;;;;;;;0.43;0.40;;;;;;;25.21;66.83;97526.66;5043981;28;20224;-68
2021/07/15 07:32:09;;;;;;;0.97;0.53;;;;;;;25.42;67.95;97527.84;5048293;28;20218;-71
2021/07/15 07:34:38;;;;;;;0.77;0.40;;;;;;;26.88;59.70;97542.28;5040691;28;20346;-70
2021/07/15 07:37:05;;;;;;;1.80;0.50;;;;;;;26.20;61.31;97537.22;5049766;28;20246;-70
2021/07/15 07:39:33;;;;;;;0.60;0.23;;;;;;;27.01;55.91;97552.31;5044290;28;20197;-70
2021/07/15 07:42:00;;;;;;;0.50;0.40;;;;;;;28.20;51.41;97561.56;5041538;28;20210;-70
2021/07/15 07:44:27;;;;;;;0.80;0.30;;;;;;;27.36;54.17;97563.06;5033536;28;20711;-70
2021/07/15 07:46:54;;;;;;;0.93;0.40;;;;;;;27.73;52.06;97557.03;5038607;28;20226;-68
2021/07/15 07:49:22;;;;;;;1.93;0.40;;;;;;;28.11;52.25;97551.72;5034465;28;20234;-70
2021/07/15 07:51:50;;;;;;;0.70;0.50;;;;;;;27.25;55.38;97550.00;5045322;28;20677;-71
2021/07/15 07:54:18;;;;;;;0.40;0.40;;;;;;;28.15;50.02;97566.41;5050414;28;20213;-70
2021/07/15 07:56:45;;;;;;;0.63;0.43;;;;;;;27.66;52.71;97572.34;5043431;28;20261;-68
2021/07/15 07:59:12;;;;;;;0.30;0.30;;;;;;;25.70;58.56;97563.00;5065156;22;20209;-71
2021/07/15 08:01:40;;;;;;;1.53;0.50;;;;;;;26.68;56.45;97567.47;5032649;28;20227;-71
2021/07/15 08:04:07;;;;;;;1.80;0.40;;;;;;;27.28;53.94;97565.81;5034145;28;20211;-73
2021/07/15 08:06:36;;;;;;;0.43;0.37;;;;;;;26.72;56.48;97557.50;5032429;28;20222;-73
2021/07/15 08:09:08;;;;;;;4.80;0.77;;;;;;;25.76;61.53;97550.88;5034554;28;20231;-73
2021/07/15 08:11:36;;;;;;;0.93;0.40;;;;;;;26.35;58.14;97568.88;5011711;28;20210;-74
2021/07/15 08:14:03;;;;;;;1.80;0.50;;;;;;;27.12;56.05;97573.59;5011302;28;20250;-71
2021/07/15 08:16:31;;;;;;;0.60;0.40;;;;;;;25.93;60.07;97569.34;5011012;28;20238;-71
2021/07/15 08:18:58;;;;;;;0.80;0.50;;;;;;;26.80;58.83;97573.97;5012198;28;20200;-71
2021/07/15 08:21:26;;;;;;;1.83;0.40;;;;;;;26.84;57.69;97579.63;5011631;28;20593;-73
2021/07/15 08:23:53;;;;;;;2.57;0.50;;;;;;;27.49;55.76;97577.78;5012476;28;20208;-73
2021/07/15 08:26:22;;;;;;;3.40;0.43;;;;;;;25.91;61.67;97572.41;5011945;28;20556;-73
2021/07/15 08:28:49;;;;;;;0.70;0.53;;;;;;;26.15;61.28;97569.38;5011584;28;20203;-73
2021/07/15 08:31:16;;;;;;;0.20;0.20;;;;;;;26.07;60.36;97581.88;5011364;28;20230;-73
2021/07/15 08:33:44;;;;;;;2.43;0.43;;;;;;;24.98;64.98;97574.91;5012161;28;20210;-73
2021/07/15 08:36:11;;;;;;;2.80;0.40;;;;;;;25.08;66.65;97579.38;5011086;28;20686;-73
2021/07/15 08:38:40;;;;;;;0.63;0.30;;;;;;;26.08;60.88;97593.59;5003679;28;20203;-73
2021/07/15 08:41:08;;;;;;;2.53;0.80;;;;;;;24.98;66.76;97583.09;5011506;28;20227;-74
2021/07/15 08:43:39;;;;;;;0.83;0.57;;;;;;;26.34;60.60;97591.84;5011458;28;20213;-74
2021/07/15 08:46:07;;;;;;;0.20;0.20;;;;;;;25.69;62.56;97593.41;5010787;28;20686;-73
2021/07/15 08:48:35;;;;;;;0.30;0.30;;;;;;;25.45;64.46;97601.03;5011238;28;20740;-73
2021/07/15 08:51:03;;;;;;;0.97;0.50;;;;;;;26.14;61.79;97598.66;5011475;28;20235;-74
2021/07/15 08:53:32;;;;;;;1.43;0.60;;;;;;;26.40;59.57;97607.06;5011593;28;20214;-74
2021/07/15 08:58:46;;;;;;;0.53;0.40;;;;;;;26.09;62.33;97598.75;5011606;28;20202;-72
2021/07/15 09:01:14;;;;;;;0.70;0.50;;;;;;;26.50;63.30;97607.59;5011118;28;20231;-73
2021/07/15 09:03:41;;;;;;;0.70;0.30;;;;;;;27.06;63.23;97596.78;5008499;28;20207;-73
2021/07/15 09:06:09;;;;;;;1.67;0.37;;;;;;;26.81;61.14;97605.69;5010908;28;20219;-74
2021/07/15 09:08:36;;;;;;;0.47;0.43;;;;;;;26.51;63.37;97600.19;5011122;28;20309;-74
2021/07/15 09:11:04;;;;;;;0.83;0.50;;;;;;;26.33;65.16;97603.94;5011250;28;20235;-73
2021/07/15 09:13:31;;;;;;;1.93;0.60;;;;;;;25.54;72.13;97585.53;5010573;28;20600;-73
2021/07/15 09:16:00;;;;;;;0.60;0.40;;;;;;;25.67;75.85;97584.69;5010841;28;20218;-73
2021/07/15 09:18:27;;;;;;;1.37;0.50;;;;;;;26.91;65.41;97616.38;5010684;28;20235;-74
2021/07/15 09:20:54;;;;;;;0.77;0.30;;;;;;;25.58;70.00;97609.22;5011076;28;20302;-74
2021/07/15 09:23:22;;;;;;;0.50;0.50;;;;;;;26.66;66.00;97611.56;5011109;28;20613;-74
2021/07/15 09:25:57;;;;;;;1.63;0.50;;;;;;;26.23;66.31;97620.59;5014541;28;20203;-74
2021/07/15 09:28:32;;;;;;;1.60;0.30;;;;;;;25.30;70.33;97610.38;5019438;28;20203;-73
2021/07/15 09:31:17;;;;;;;2.40;0.60;;;;;;;25.07;73.73;97605.88;5019827;28;20240;-73
2021/07/15 09:33:44;;;;;;;0.90;0.33;;;;;;;26.18;69.24;97618.78;5012992;28;20243;-73
2021/07/15 09:36:13;;;;;;;0.23;0.23;;;;;;;26.96;65.58;97626.41;5015151;28;20228;-73
2021/07/15 09:38:41;;;;;;;1.33;0.30;;;;;;;27.52;61.39;97631.97;5016942;28;20214;-72
2021/07/15 09:41:09;;;;;;;1.73;0.67;;;;;;;27.50;62.26;97626.00;5014849;28;20700;-74
2021/07/15 09:43:38;;;;;;;1.17;0.60;;;;;;;27.58;61.41;97630.72;5014365;28;20206;-72
2021/07/15 09:46:19;;;;;;;2.57;0.30;;;;;;;27.19;61.46;97630.72;5013781;28;20632;-73
2021/07/15 09:48:48;;;;;;;0.70;0.50;;;;;;;25.85;68.79;97616.53;5013753;28;20213;-72
2021/07/15 09:51:17;;;;;;;0.50;0.40;;;;;;;26.71;63.14;97625.13;5014499;28;20253;-74
2021/07/15 09:53:45;;;;;;;1.23;0.50;;;;;;;25.89;67.77;97625.75;5014331;28;20211;-73
2021/07/15 09:56:13;;;;;;;1.10;0.60;;;;;;;24.88;75.25;97628.94;5013752;28;20607;-73
2021/07/15 09:58:42;;;;;;;1.33;0.33;;;;;;;25.31;76.39;97622.09;5008665;28;20231;-74
2021/07/15 10:01:10;;;;;;;0.30;0.23;;;;;;;25.04;74.39;97630.25;5013076;28;20231;-74
2021/07/15 10:03:40;;;;;;;0.33;0.30;;;;;;;25.19;75.99;97628.03;5010919;28;20212;-74
2021/07/15 10:06:08;;;;;;;0.77;0.40;;;;;;;25.39;77.86;97627.63;5010911;28;20211;-74
2021/07/15 10:08:38;;;;;;;0.40;0.30;;;;;;;25.51;78.96;97627.94;5014039;28;20199;-74
2021/07/15 10:11:15;;;;;;;0.40;0.40;;;;;;;25.91;76.94;97627.09;5013743;28;20231;-73
2021/07/15 10:13:43;;;;;;;0.83;0.40;;;;;;;25.99;72.92;97636.50;5014252;28;20203;-74
2021/07/15 10:16:11;;;;;;;0.93;0.40;;;;;;;25.58;79.68;97622.09;5013030;28;20667;-73
2021/07/15 10:18:41;;;;;;;2.13;0.50;;;;;;;25.21;69.92;97642.19;5006010;28;20223;-72
2021/07/15 10:21:10;;;;;;;3.60;0.50;;;;;;;24.98;72.49;97640.44;5013735;28;20227;-74
2021/07/15 10:23:39;;;;;;;0.93;0.60;;;;;;;25.13;76.11;97636.63;5013846;28;20567;-73
2021/07/15 10:26:08;;;;;;;0.40;0.40;;;;;;;23.59;84.46;97644.28;5012360;28;20203;-72
2021/07/15 10:28:36;;;;;;;1.23;0.53;;;;;;;24.97;78.08;97636.09;5013987;28;20199;-72
2021/07/15 10:31:04;;;;;;;3.50;0.67;;;;;;;24.32;84.13;97641.88;5013334;28;20239;-71
2021/07/15 10:33:32;;;;;;;1.13;0.50;;;;;;;25.75;76.04;97642.16;5013797;28;20203;-72
2021/07/15 10:36:03;;;;;;;3.03;0.50;;;;;;;25.04;73.83;97643.91;5012933;28;20203;-71
2021/07/15 10:38:34;;;;;;;1.97;0.57;;;;;;;25.12;76.47;97643.19;5013266;28;20227;-72
2021/07/15 10:41:02;;;;;;;0.57;0.40;;;;;;;25.24;75.28;97635.31;5013290;28;20227;-72
2021/07/15 10:43:30;;;;;;;1.47;0.70;;;;;;;24.96;78.58;97647.31;5013714;28;20577;-71
2021/07/15 10:46:01;;;;;;;0.53;0.53;;;;;;;25.85;72.10;97641.94;5012471;28;20207;-74
2021/07/15 10:48:28;;;;;;;0.90;0.60;;;;;;;26.42;69.46;97652.16;5013576;28;20266;-74
2021/07/15 10:50:56;;;;;;;1.23;0.70;;;;;;;27.00;66.19;97650.13;5013598;28;20238;-73
2021/07/15 10:53:25;;;;;;;1.50;0.70;;;;;;;26.81;68.16;97646.78;5013532;28;20213;-73
2021/07/15 10:55:53;;;;;;;1.13;0.83;;;;;;;27.67;63.84;97656.22;5012941;28;20578;-72
2021/07/15 10:58:40;;;;;;;0.93;0.60;;;;;;;28.22;60.49;97657.31;5013430;28;20227;-74
2021/07/15 11:01:08;;;;;;;1.27;0.73;;;;;;;26.83;68.64;97646.47;5009102;28;20239;-71
2021/07/15 11:03:35;;;;;;;1.20;0.57;;;;;;;25.70;74.89;97639.53;5014998;28;20208;-74
2021/07/15 11:06:03;;;;;;;0.67;0.50;;;;;;;25.78;74.90;97636.09;5011862;28;20234;-74
2021/07/15 11:09:02;;;;;;;1.03;0.60;;;;;;;28.28;62.52;97667.00;5014171;28;20210;-71
2021/07/15 11:11:34;;;;;;;1.33;0.63;;;;;;;28.04;60.81;97667.47;4951711;29;20289;-72
2021/07/15 11:14:01;;;;;;;0.50;0.50;;;;;;;28.65;58.37;97669.91;5001684;28;20208;-71
2021/07/15 11:16:48;;;;;;;0.57;0.57;;;;;;;29.72;52.60;97676.88;5012724;28;20204;-71
2021/07/15 11:19:48;;;;;;;2.47;0.90;;;;;;;29.98;52.70;97675.59;5013464;28;20670;-71
2021/07/15 11:22:42;;;;;;;0.67;0.50;;;;;;;27.09;67.35;97652.91;5012787;28;20269;-71
2021/07/15 11:25:12;;;;;;;0.60;0.60;;;;;;;27.61;69.13;97646.53;5012009;28;20256;-71
2021/07/15 11:27:45;;;;;;;0.40;0.40;;;;;;;28.84;55.84;97677.78;5004983;28;20210;-71
2021/07/15 11:30:15;;;;;;;0.30;0.30;;;;;;;28.06;59.54;97656.13;5012071;28;20231;-71
2021/07/15 11:32:43;;;;;;;0.80;0.40;;;;;;;28.36;60.62;97656.00;5005580;28;20663;-71
2021/07/15 11:35:31;;;;;;;1.65;0.43;;;;;;;28.14;57.69;97672.63;5012502;28;20207;-71
2021/07/15 11:38:11;;;;;;;1.48;0.60;;;;;;;27.19;63.25;97656.22;5012484;28;20735;-70
2021/07/15 11:40:49;;;;;;;0.53;0.40;;;;;;;27.17;63.58;97652.97;5004125;28;20223;-73
2021/07/15 11:43:27;;;;;;;0.40;0.40;;;;;;;27.23;59.79;97654.47;5012294;28;20973;-72
2021/07/15 11:46:14;;;;;;;0.43;0.40;;;;;;;27.70;59.48;97655.56;5011764;28;20206;-73
2021/07/15 11:49:06;;;;;;;0.30;0.30;;;;;;;27.46;59.29;97661.47;5012455;28;20206;-72
2021/07/15 11:51:38;;;;;;;0.43;0.40;;;;;;;27.59;60.17;97652.31;5011578;28;20316;-72
2021/07/15 11:54:21;;;;;;;0.40;0.40;;;;;;;27.87;60.29;97647.41;5012142;28;20221;-72
2021/07/15 11:56:51;;;;;;;0.40;0.40;;;;;;;27.20;61.78;97659.75;5012012;28;20218;-72
2021/07/15 11:59:39;;;;;;;2.00;0.50;;;;;;;28.41;58.41;97672.34;5011375;28;20724;-72